Time;durP1;ratioP1;P1;durP2;ratioP2;P2;SDS_P1;SDS_P2;PMS_P1;PMS_P2;Temp;Humidity;BMP_temperature;BMP_pressure;BME280_temperature;BME280_humidity;BME280_pressure;Samples;Min_cycle;Max_cycle;Signal;HPM_P1;HPM_P2
2022/07/27 00:02:10;;;;;;;4.28;1.10;;;;;;;;;;6130475;23;20026;-83
2022/07/27 00:04:39;;;;;;;5.45;1.20;;;;;;;;;;6130810;23;20219;-83
2022/07/27 00:07:06;;;;;;;3.85;1.23;;;;;;;;;;6129974;23;20032;-84
2022/07/27 00:09:34;;;;;;;4.35;1.17;;;;;;;;;;6129527;23;20027;-83
2022/07/27 00:12:03;;;;;;;8.20;1.20;;;;;;;;;;6156860;23;20767;-84
2022/07/27 00:14:31;;;;;;;5.68;1.27;;;;;;;;;;6156423;23;20033;-83
2022/07/27 00:17:00;;;;;;;3.38;1.42;;;;;;;;;;6156329;23;20547;-83
2022/07/27 00:19:30;;;;;;;7.68;1.45;;;;;;;;;;6132310;23;20468;-82
2022/07/27 00:21:57;;;;;;;6.00;1.45;;;;;;;;;;6161051;23;20025;-83
2022/07/27 00:24:26;;;;;;;7.13;1.98;;;;;;;;;;6132920;23;20018;-83
2022/07/27 00:26:55;;;;;;;4.35;1.20;;;;;;;;;;6132041;23;20014;-83
2022/07/27 00:29:22;;;;;;;4.80;1.23;;;;;;;;;;6157543;23;20077;-83
2022/07/27 00:31:49;;;;;;;6.70;1.58;;;;;;;;;;6132733;23;20018;-83
2022/07/27 00:34:19;;;;;;;4.85;1.40;;;;;;;;;;6131340;23;20113;-83
2022/07/27 00:36:46;;;;;;;4.30;1.40;;;;;;;;;;6131551;23;20053;-83
2022/07/27 00:39:14;;;;;;;4.05;1.30;;;;;;;;;;6156981;23;20033;-83
2022/07/27 00:41:41;;;;;;;9.15;1.33;;;;;;;;;;6156379;23;20452;-82
2022/07/27 00:44:11;;;;;;;4.53;1.20;;;;;;;;;;6131046;23;20025;-83
2022/07/27 00:46:43;;;;;;;4.75;1.30;;;;;;;;;;6157417;23;20905;-83
2022/07/27 00:49:12;;;;;;;7.78;1.30;;;;;;;;;;6131660;23;20034;-83
2022/07/27 00:51:42;;;;;;;8.57;1.52;;;;;;;;;;6131091;23;20018;-83
2022/07/27 00:54:12;;;;;;;4.80;1.30;;;;;;;;;;6131770;23;20026;-83
2022/07/27 00:56:39;;;;;;;3.17;0.98;;;;;;;;;;6156898;23;20068;-82
2022/07/27 00:59:07;;;;;;;5.28;1.20;;;;;;;;;;6130242;23;20030;-83
2022/07/27 01:01:39;;;;;;;5.43;1.65;;;;;;;;;;6130518;23;20022;-84
2022/07/27 01:04:07;;;;;;;5.53;1.20;;;;;;;;;;6156995;23;20726;-83
2022/07/27 01:06:34;;;;;;;9.95;1.45;;;;;;;;;;6131153;23;20025;-83
2022/07/27 01:11:47;;;;;;;5.28;1.35;;;;;;;;;;6156782;23;20145;-83
2022/07/27 01:14:19;;;;;;;3.90;1.27;;;;;;;;;;6157062;23;20316;-82
2022/07/27 01:16:54;;;;;;;7.75;1.45;;;;;;;;;;6132286;23;20026;-84
2022/07/27 01:19:21;;;;;;;6.05;1.30;;;;;;;;;;6131063;23;20486;-83
2022/07/27 01:21:49;;;;;;;8.02;1.40;;;;;;;;;;6157689;23;20026;-83
2022/07/27 01:24:16;;;;;;;8.45;1.30;;;;;;;;;;6131259;23;20980;-83
2022/07/27 01:26:43;;;;;;;6.03;1.15;;;;;;;;;;6130801;23;20582;-83
2022/07/27 01:29:14;;;;;;;2.97;1.10;;;;;;;;;;6130280;23;20444;-83
2022/07/27 01:31:41;;;;;;;6.35;1.98;;;;;;;;;;6130464;23;20454;-83
2022/07/27 01:34:09;;;;;;;6.22;1.10;;;;;;;;;;6156922;23;20101;-83
2022/07/27 01:36:37;;;;;;;2.25;1.10;;;;;;;;;;6131251;23;20022;-83
2022/07/27 01:39:07;;;;;;;2.15;1.13;;;;;;;;;;6156850;23;20052;-82
2022/07/27 01:41:34;;;;;;;5.43;1.33;;;;;;;;;;6131177;23;20615;-83
2022/07/27 01:44:01;;;;;;;2.53;1.20;;;;;;;;;;6130790;23;20049;-83
2022/07/27 01:46:34;;;;;;;4.40;1.33;;;;;;;;;;6131548;23;20025;-83
2022/07/27 01:49:01;;;;;;;7.03;1.65;;;;;;;;;;6156033;23;20117;-83
2022/07/27 01:51:31;;;;;;;8.93;1.15;;;;;;;;;;6156449;23;20767;-83
2022/07/27 01:53:58;;;;;;;6.13;1.40;;;;;;;;;;6157424;23;20472;-83
2022/07/27 01:56:26;;;;;;;4.32;1.15;;;;;;;;;;6130185;23;20072;-84
2022/07/27 01:58:54;;;;;;;4.80;1.55;;;;;;;;;;6130368;23;20796;-83
2022/07/27 02:01:24;;;;;;;5.82;1.40;;;;;;;;;;6130470;23;20029;-83
2022/07/27 02:03:51;;;;;;;5.55;2.08;;;;;;;;;;6156488;23;20089;-83
2022/07/27 02:06:18;;;;;;;2.58;1.35;;;;;;;;;;6154902;23;20464;-83
2022/07/27 02:08:48;;;;;;;5.20;1.42;;;;;;;;;;6156578;23;20026;-83
2022/07/27 02:14:01;;;;;;;2.47;1.40;;;;;;;;;;6156733;23;20033;-83
2022/07/27 02:16:29;;;;;;;4.57;1.20;;;;;;;;;;6156137;23;20033;-83
2022/07/27 02:18:56;;;;;;;4.18;1.30;;;;;;;;;;6155788;23;20030;-83
2022/07/27 02:21:26;;;;;;;5.10;1.30;;;;;;;;;;6154649;23;20022;-83
2022/07/27 02:23:53;;;;;;;2.88;1.33;;;;;;;;;;6155655;23;20479;-83
2022/07/27 02:26:20;;;;;;;6.10;1.38;;;;;;;;;;6154962;23;20018;-83
2022/07/27 02:28:48;;;;;;;4.20;1.30;;;;;;;;;;6154995;23;20088;-83
2022/07/27 02:31:15;;;;;;;2.25;1.17;;;;;;;;;;6130468;23;20491;-83
2022/07/27 02:33:42;;;;;;;2.85;1.13;;;;;;;;;;6129862;23;20025;-81
2022/07/27 02:36:12;;;;;;;4.10;1.42;;;;;;;;;;6157070;23;20029;-83
2022/07/27 02:38:39;;;;;;;4.03;1.70;;;;;;;;;;6130490;23;20030;-83
2022/07/27 02:41:07;;;;;;;4.47;1.40;;;;;;;;;;6130707;23;20109;-83
2022/07/27 02:43:37;;;;;;;3.70;1.45;;;;;;;;;;6155546;23;20077;-83
2022/07/27 02:46:08;;;;;;;5.93;1.27;;;;;;;;;;6130979;23;20806;-83
2022/07/27 02:48:35;;;;;;;4.25;1.40;;;;;;;;;;6157041;23;20548;-83
2022/07/27 02:51:03;;;;;;;3.13;1.40;;;;;;;;;;6129875;23;20054;-83
2022/07/27 02:53:31;;;;;;;5.13;1.48;;;;;;;;;;6156172;23;20029;-83
2022/07/27 02:55:58;;;;;;;3.15;1.55;;;;;;;;;;6156687;23;21253;-83
2022/07/27 02:58:25;;;;;;;4.82;1.65;;;;;;;;;;6130737;23;20029;-83
2022/07/27 03:00:52;;;;;;;3.97;1.60;;;;;;;;;;6156188;23;20030;-84
2022/07/27 03:03:27;;;;;;;3.90;1.77;;;;;;;;;;6156937;23;20033;-83
2022/07/27 03:06:03;;;;;;;2.50;1.50;;;;;;;;;;6132562;23;20763;-83
2022/07/27 03:08:30;;;;;;;9.55;2.25;;;;;;;;;;6130211;23;20033;-83
2022/07/27 03:10:57;;;;;;;3.33;1.40;;;;;;;;;;6155497;23;20029;-83
2022/07/27 03:13:26;;;;;;;6.40;1.58;;;;;;;;;;6156696;23;20407;-83
2022/07/27 03:15:56;;;;;;;4.03;1.50;;;;;;;;;;6131099;23;20053;-83
2022/07/27 03:18:24;;;;;;;3.17;1.77;;;;;;;;;;6130663;23;20065;-82
2022/07/27 03:20:57;;;;;;;7.63;1.83;;;;;;;;;;6156173;23;20092;-83
2022/07/27 03:23:24;;;;;;;4.85;1.60;;;;;;;;;;6156354;23;20033;-83
2022/07/27 03:25:52;;;;;;;5.55;1.50;;;;;;;;;;6130824;23;20786;-83
2022/07/27 03:28:20;;;;;;;4.35;1.58;;;;;;;;;;6130252;23;20065;-83
2022/07/27 03:30:47;;;;;;;3.88;1.42;;;;;;;;;;6156381;23;20724;-83
2022/07/27 03:33:16;;;;;;;6.47;1.58;;;;;;;;;;6130883;23;20096;-83
2022/07/27 03:35:44;;;;;;;5.10;1.40;;;;;;;;;;6155604;23;20028;-83
2022/07/27 03:38:15;;;;;;;8.80;1.70;;;;;;;;;;6155222;23;20459;-83
2022/07/27 03:40:45;;;;;;;3.83;1.40;;;;;;;;;;6130744;23;20531;-83
2022/07/27 03:43:12;;;;;;;5.15;1.63;;;;;;;;;;6156992;23;20459;-83
2022/07/27 03:45:42;;;;;;;5.32;1.60;;;;;;;;;;6156690;23;20479;-83
2022/07/27 03:48:10;;;;;;;4.57;1.25;;;;;;;;;;6155597;23;20038;-83
2022/07/27 03:50:37;;;;;;;2.45;1.17;;;;;;;;;;6156350;23;20472;-83
2022/07/27 03:53:04;;;;;;;1.40;1.30;;;;;;;;;;6156388;23;20026;-83
2022/07/27 03:55:31;;;;;;;2.45;1.20;;;;;;;;;;6155910;23;20045;-83
2022/07/27 03:58:01;;;;;;;4.18;1.08;;;;;;;;;;6156162;23;20057;-83
2022/07/27 04:00:28;;;;;;;2.47;1.05;;;;;;;;;;6129293;23;20026;-83
2022/07/27 04:02:58;;;;;;;3.15;1.35;;;;;;;;;;6156288;23;20491;-83
2022/07/27 04:05:25;;;;;;;1.83;1.30;;;;;;;;;;6156131;23;20093;-83
2022/07/27 04:07:55;;;;;;;1.95;1.30;;;;;;;;;;6155773;23;20034;-82
2022/07/27 04:10:25;;;;;;;2.00;1.20;;;;;;;;;;6129511;23;21153;-83
2022/07/27 04:13:00;;;;;;;3.38;1.40;;;;;;;;;;6156598;23;20050;-84
2022/07/27 04:15:29;;;;;;;3.92;1.55;;;;;;;;;;6130690;23;20026;-83
2022/07/27 04:18:01;;;;;;;3.83;1.50;;;;;;;;;;6155467;23;20034;-83
2022/07/27 04:20:28;;;;;;;3.17;1.33;;;;;;;;;;6156207;23;20056;-83
2022/07/27 04:22:57;;;;;;;2.13;1.38;;;;;;;;;;6156249;23;20486;-83
2022/07/27 04:25:25;;;;;;;2.33;1.30;;;;;;;;;;6154788;23;20073;-83
2022/07/27 04:27:53;;;;;;;5.97;1.30;;;;;;;;;;6155942;23;20081;-83
2022/07/27 04:30:20;;;;;;;2.97;1.38;;;;;;;;;;6155192;23;20018;-83
2022/07/27 04:32:49;;;;;;;5.78;1.45;;;;;;;;;;6156124;23;20038;-83
2022/07/27 04:35:16;;;;;;;2.78;1.38;;;;;;;;;;6155930;23;20074;-83
2022/07/27 04:37:54;;;;;;;2.67;1.30;;;;;;;;;;6131427;23;20029;-83
2022/07/27 04:40:26;;;;;;;1.25;1.15;;;;;;;;;;6155885;23;20110;-83
2022/07/27 04:42:53;;;;;;;3.65;1.40;;;;;;;;;;6155879;23;20101;-83
2022/07/27 04:45:21;;;;;;;2.80;1.08;;;;;;;;;;6155885;23;20022;-83
2022/07/27 04:47:49;;;;;;;4.20;1.63;;;;;;;;;;6155905;23;20030;-83
2022/07/27 04:50:16;;;;;;;3.17;1.40;;;;;;;;;;6154881;23;20758;-83
2022/07/27 04:52:44;;;;;;;3.67;1.40;;;;;;;;;;6155583;23;20381;-83
2022/07/27 04:55:14;;;;;;;5.53;1.85;;;;;;;;;;6129409;23;20050;-83
2022/07/27 04:57:44;;;;;;;1.75;1.38;;;;;;;;;;6130365;23;20358;-83
2022/07/27 05:00:11;;;;;;;2.75;1.30;;;;;;;;;;6131045;23;20152;-83
2022/07/27 05:02:39;;;;;;;3.63;1.98;;;;;;;;;;6155667;23;20032;-83
2022/07/27 05:05:07;;;;;;;4.45;1.70;;;;;;;;;;6157106;23;20527;-83
2022/07/27 05:07:35;;;;;;;10.10;1.60;;;;;;;;;;6156895;23;20038;-83
2022/07/27 05:10:03;;;;;;;4.03;1.70;;;;;;;;;;6130483;23;20507;-83
2022/07/27 05:12:33;;;;;;;5.40;1.73;;;;;;;;;;6131838;23;20025;-83
2022/07/27 05:15:00;;;;;;;6.93;1.65;;;;;;;;;;6156936;23;20029;-83
2022/07/27 05:17:27;;;;;;;4.20;1.50;;;;;;;;;;6131105;23;20467;-83
2022/07/27 05:19:55;;;;;;;5.22;1.90;;;;;;;;;;6156671;23;20018;-83
2022/07/27 05:22:22;;;;;;;3.22;1.67;;;;;;;;;;6156300;23;20810;-83
2022/07/27 05:24:49;;;;;;;3.17;1.73;;;;;;;;;;6156794;23;20014;-83
2022/07/27 05:27:17;;;;;;;7.50;1.80;;;;;;;;;;6131128;23;20085;-83
2022/07/27 05:29:48;;;;;;;4.60;1.50;;;;;;;;;;6155952;23;20408;-83
2022/07/27 05:32:16;;;;;;;8.10;2.58;;;;;;;;;;6154474;23;20085;-83
2022/07/27 05:34:44;;;;;;;12.93;1.90;;;;;;;;;;6130386;23;20034;-83
2022/07/27 05:37:12;;;;;;;5.22;1.90;;;;;;;;;;6156936;23;20030;-84
2022/07/27 05:39:41;;;;;;;5.90;1.70;;;;;;;;;;6127576;23;20026;-83
2022/07/27 05:42:10;;;;;;;3.42;1.85;;;;;;;;;;6155544;23;20471;-84
2022/07/27 05:44:38;;;;;;;3.42;1.55;;;;;;;;;;6128802;23;20495;-83
2022/07/27 05:47:08;;;;;;;5.97;1.88;;;;;;;;;;6155433;23;20030;-83
2022/07/27 05:49:37;;;;;;;4.32;1.60;;;;;;;;;;6156489;23;20028;-83
2022/07/27 05:52:07;;;;;;;4.88;1.67;;;;;;;;;;6154252;23;20025;-83
2022/07/27 05:54:36;;;;;;;4.68;1.85;;;;;;;;;;6128604;23;20026;-83
2022/07/27 05:57:03;;;;;;;7.07;1.88;;;;;;;;;;6155670;23;20026;-84
2022/07/27 05:59:31;;;;;;;4.47;1.75;;;;;;;;;;6154827;23;20033;-86
2022/07/27 06:01:59;;;;;;;5.40;1.58;;;;;;;;;;6129780;23;20018;-84
2022/07/27 06:04:26;;;;;;;7.13;1.73;;;;;;;;;;6127868;23;20022;-83
2022/07/27 06:09:39;;;;;;;7.00;1.80;;;;;;;;;;6155568;23;20101;-84
2022/07/27 06:12:07;;;;;;;6.72;1.92;;;;;;;;;;6155395;23;20106;-83
2022/07/27 06:14:34;;;;;;;5.28;1.70;;;;;;;;;;6153946;23;20049;-83
2022/07/27 06:17:02;;;;;;;2.83;1.42;;;;;;;;;;6156778;23;20034;-83
2022/07/27 06:19:31;;;;;;;5.55;1.83;;;;;;;;;;6155698;23;20025;-83
2022/07/27 06:22:04;;;;;;;5.38;1.70;;;;;;;;;;6130486;23;20530;-83
2022/07/27 06:24:33;;;;;;;5.63;1.92;;;;;;;;;;6130390;23;20063;-82
2022/07/27 06:27:01;;;;;;;4.07;2.00;;;;;;;;;;6155530;23;20140;-83
2022/07/27 06:29:28;;;;;;;6.70;1.90;;;;;;;;;;6129102;23;20022;-82
2022/07/27 06:31:58;;;;;;;4.50;1.70;;;;;;;;;;6128880;23;20109;-83
2022/07/27 06:34:27;;;;;;;6.15;1.65;;;;;;;;;;6129535;23;20030;-84
2022/07/27 06:36:58;;;;;;;3.22;1.75;;;;;;;;;;6155073;23;20081;-84
2022/07/27 06:39:28;;;;;;;4.45;1.50;;;;;;;;;;6155186;23;20030;-84
2022/07/27 06:41:56;;;;;;;6.18;1.80;;;;;;;;;;6129379;23;20055;-83
2022/07/27 06:44:24;;;;;;;6.80;2.00;;;;;;;;;;6154891;23;20026;-84
2022/07/27 06:46:54;;;;;;;3.65;2.22;;;;;;;;;;6129335;23;20026;-84
2022/07/27 06:49:25;;;;;;;5.20;2.40;;;;;;;;;;6154152;23;20048;-83
2022/07/27 06:51:52;;;;;;;6.13;1.90;;;;;;;;;;6157023;23;20029;-83
2022/07/27 06:54:19;;;;;;;5.93;1.55;;;;;;;;;;6155668;23;20392;-84
2022/07/27 06:56:56;;;;;;;5.35;1.67;;;;;;;;;;6132774;23;20037;-84
2022/07/27 06:59:25;;;;;;;4.57;1.30;;;;;;;;;;6131419;23;20910;-83
2022/07/27 07:02:12;;;;;;;5.95;1.50;;;;;;;;;;6134450;23;20014;-83
2022/07/27 07:04:42;;;;;;;5.35;1.45;;;;;;;;;;6129698;23;20026;-84
2022/07/27 07:07:13;;;;;;;5.55;2.25;;;;;;;;;;6155250;23;20137;-84
2022/07/27 07:09:42;;;;;;;4.40;1.38;;;;;;;;;;6155177;23;20022;-83
2022/07/27 07:12:14;;;;;;;4.03;1.45;;;;;;;;;;6131035;23;20026;-84
2022/07/27 07:14:46;;;;;;;1.70;1.10;;;;;;;;;;6131053;23;20825;-84
2022/07/27 07:17:13;;;;;;;6.95;1.13;;;;;;;;;;6156592;23;20502;-84
2022/07/27 07:19:53;;;;;;;5.88;1.73;;;;;;;;;;6131398;23;20026;-84
2022/07/27 07:22:28;;;;;;;3.72;1.30;;;;;;;;;;6153981;23;20730;-84
2022/07/27 07:24:58;;;;;;;4.88;1.33;;;;;;;;;;6130269;23;20030;-83
2022/07/27 07:27:29;;;;;;;4.95;1.45;;;;;;;;;;6154180;23;20022;-83
2022/07/27 07:29:57;;;;;;;7.72;1.25;;;;;;;;;;6153990;23;20491;-83
2022/07/27 07:32:25;;;;;;;3.28;1.23;;;;;;;;;;6152881;23;20021;-84
2022/07/27 07:35:00;;;;;;;5.10;1.38;;;;;;;;;;6152385;23;20034;-84
2022/07/27 07:37:30;;;;;;;6.78;1.50;;;;;;;;;;6153514;23;20030;-83
2022/07/27 07:40:00;;;;;;;5.10;1.00;;;;;;;;;;6154737;23;20073;-84
2022/07/27 07:42:55;;;;;;;10.20;1.50;;;;;;;;;;6154620;23;20032;-84
2022/07/27 07:45:29;;;;;;;7.15;1.55;;;;;;;;;;6128851;23;20085;-84
2022/07/27 07:47:58;;;;;;;3.63;1.25;;;;;;;;;;6127458;23;20823;-83
2022/07/27 07:50:27;;;;;;;3.22;1.10;;;;;;;;;;6129236;23;20030;-84
2022/07/27 07:52:57;;;;;;;3.42;1.20;;;;;;;;;;6151167;23;20042;-83
2022/07/27 07:55:25;;;;;;;5.25;1.02;;;;;;;;;;6130079;23;20182;-83
2022/07/27 07:57:54;;;;;;;6.28;1.40;;;;;;;;;;6155872;23;20030;-83
2022/07/27 08:00:24;;;;;;;6.50;1.10;;;;;;;;;;6129749;23;20069;-83
2022/07/27 08:02:53;;;;;;;3.47;1.05;;;;;;;;;;6127666;23;20018;-84
2022/07/27 08:05:21;;;;;;;3.63;1.00;;;;;;;;;;6129430;23;20104;-83
2022/07/27 08:07:49;;;;;;;4.72;0.90;;;;;;;;;;6154699;23;20030;-84
2022/07/27 08:10:17;;;;;;;4.13;0.93;;;;;;;;;;6154822;23;20024;-84
2022/07/27 08:12:47;;;;;;;4.07;0.73;;;;;;;;;;6129015;23;20018;-84
2022/07/27 08:15:17;;;;;;;2.30;0.93;;;;;;;;;;6128078;23;20113;-83
2022/07/27 08:17:45;;;;;;;5.25;1.42;;;;;;;;;;6152458;23;20068;-84
2022/07/27 08:20:14;;;;;;;4.53;1.10;;;;;;;;;;6128611;23;20025;-84
2022/07/27 08:22:41;;;;;;;5.43;1.10;;;;;;;;;;6127417;23;20025;-84
2022/07/27 08:25:12;;;;;;;5.35;1.25;;;;;;;;;;6153579;23;20032;-84
2022/07/27 08:27:41;;;;;;;4.18;1.08;;;;;;;;;;6128003;23;20752;-84
2022/07/27 08:30:16;;;;;;;4.28;1.08;;;;;;;;;;6129827;23;20022;-83
2022/07/27 08:33:10;;;;;;;3.30;1.20;;;;;;;;;;6156153;23;20026;-84
2022/07/27 08:35:37;;;;;;;5.25;1.45;;;;;;;;;;6154628;23;20104;-85
2022/07/27 08:38:05;;;;;;;3.00;0.90;;;;;;;;;;6155594;23;20361;-84
2022/07/27 08:40:33;;;;;;;5.72;1.10;;;;;;;;;;6129509;23;20858;-83
2022/07/27 08:43:11;;;;;;;3.67;0.98;;;;;;;;;;6155019;23;20025;-84
2022/07/27 08:45:40;;;;;;;3.08;0.95;;;;;;;;;;6152621;23;20022;-83
2022/07/27 08:48:11;;;;;;;2.35;0.90;;;;;;;;;;6155404;23;20109;-84
2022/07/27 08:50:38;;;;;;;5.72;1.00;;;;;;;;;;6155446;23;20022;-84
2022/07/27 08:53:07;;;;;;;3.28;1.17;;;;;;;;;;6129029;23;21002;-84
2022/07/27 08:55:38;;;;;;;3.45;1.02;;;;;;;;;;6156263;23;20029;-84
2022/07/27 08:58:06;;;;;;;3.50;0.95;;;;;;;;;;6129687;23;20030;-84
2022/07/27 09:00:34;;;;;;;1.58;0.88;;;;;;;;;;6127383;23;20022;-84
2022/07/27 09:03:02;;;;;;;2.10;1.00;;;;;;;;;;6155809;23;20050;-85
2022/07/27 09:05:41;;;;;;;5.13;1.20;;;;;;;;;;6130570;23;20168;-85
2022/07/27 09:08:12;;;;;;;3.20;0.80;;;;;;;;;;6155481;23;20445;-85
2022/07/27 09:10:40;;;;;;;3.10;0.90;;;;;;;;;;6155248;23;20025;-84
2022/07/27 09:13:16;;;;;;;3.33;1.05;;;;;;;;;;6153649;23;20474;-83
2022/07/27 09:15:47;;;;;;;2.80;0.93;;;;;;;;;;6153455;23;20448;-84
2022/07/27 09:18:38;;;;;;;2.22;0.80;;;;;;;;;;6155185;23;20036;-83
2022/07/27 09:21:23;;;;;;;;;;;;;;;;;;6127699;23;20025;-85
2022/07/27 09:23:54;;;;;;;2.70;0.98;;;;;;;;;;6128542;23;44477;-84
2022/07/27 09:26:26;;;;;;;3.58;0.90;;;;;;;;;;6130204;23;20029;-84
2022/07/27 09:29:03;;;;;;;5.07;1.10;;;;;;;;;;6154985;23;20474;-84
2022/07/27 09:31:30;;;;;;;5.47;1.00;;;;;;;;;;6128349;23;20081;-84
2022/07/27 09:33:59;;;;;;;5.07;1.00;;;;;;;;;;6154614;23;20756;-84
2022/07/27 09:36:29;;;;;;;9.18;1.75;;;;;;;;;;6129982;23;20021;-84
2022/07/27 09:39:07;;;;;;;2.53;0.82;;;;;;;;;;6129712;23;20545;-84
2022/07/27 09:41:42;;;;;;;3.33;1.05;;;;;;;;;;6156755;23;20049;-85
2022/07/27 09:44:12;;;;;;;3.50;0.90;;;;;;;;;;6156741;23;20028;-84
2022/07/27 09:47:01;;;;;;;6.00;1.23;;;;;;;;;;6135459;23;20049;-84
2022/07/27 09:49:33;;;;;;;6.25;1.10;;;;;;;;;;6129490;23;20026;-84
2022/07/27 09:52:02;;;;;;;3.00;1.00;;;;;;;;;;6128301;23;20030;-84
2022/07/27 09:54:45;;;;;;;5.18;0.95;;;;;;;;;;6155118;23;20030;-84
2022/07/27 09:57:17;;;;;;;4.57;1.00;;;;;;;;;;6129094;23;20021;-84
2022/07/27 10:00:06;;;;;;;4.15;1.20;;;;;;;;;;6128425;23;20030;-84
2022/07/27 10:02:34;;;;;;;2.30;0.73;;;;;;;;;;6128959;23;20958;-84
2022/07/27 10:05:01;;;;;;;3.33;1.20;;;;;;;;;;6129480;23;20022;-84
2022/07/27 10:07:31;;;;;;;4.35;1.20;;;;;;;;;;6153767;23;20026;-84
2022/07/27 10:10:01;;;;;;;3.13;0.98;;;;;;;;;;6128496;23;20034;-84
2022/07/27 10:12:32;;;;;;;5.47;0.95;;;;;;;;;;6154325;23;20410;-84
2022/07/27 10:15:01;;;;;;;4.07;0.82;;;;;;;;;;6130928;23;20025;-85
2022/07/27 10:17:29;;;;;;;3.95;1.00;;;;;;;;;;6155344;23;20100;-84
2022/07/27 10:20:08;;;;;;;4.43;1.02;;;;;;;;;;6156792;23;20030;-85
2022/07/27 10:22:53;;;;;;;2.63;0.82;;;;;;;;;;6129018;23;20033;-84
2022/07/27 10:25:30;;;;;;;5.68;1.08;;;;;;;;;;6155890;23;20065;-84
2022/07/27 10:28:20;;;;;;;8.10;1.30;;;;;;;;;;6156358;23;20022;-85
2022/07/27 10:30:47;;;;;;;7.32;1.17;;;;;;;;;;6156607;23;20026;-84
2022/07/27 10:33:39;;;;;;;1.92;0.80;;;;;;;;;;6131971;23;20034;-85
2022/07/27 10:36:21;;;;;;;4.22;1.10;;;;;;;;;;6130820;23;20029;-85
2022/07/27 10:38:49;;;;;;;4.82;1.17;;;;;;;;;;6130227;23;20022;-85
2022/07/27 10:41:21;;;;;;;3.10;1.05;;;;;;;;;;6130083;23;20054;-84
2022/07/27 10:43:50;;;;;;;2.72;1.00;;;;;;;;;;6129959;23;20078;-84
2022/07/27 10:46:20;;;;;;;8.73;1.20;;;;;;;;;;6156566;23;20025;-85
2022/07/27 10:48:48;;;;;;;3.03;1.17;;;;;;;;;;6156323;23;20026;-85
2022/07/27 10:51:33;;;;;;;8.77;1.42;;;;;;;;;;6130539;23;20026;-85
2022/07/27 10:54:18;;;;;;;5.50;1.00;;;;;;;;;;6124596;23;20750;-84
2022/07/27 10:56:50;;;;;;;5.03;1.00;;;;;;;;;;6151733;23;20116;-85
2022/07/27 10:59:47;;;;;;;6.75;1.33;;;;;;;;;;6125857;23;20467;-85
2022/07/27 11:02:41;;;;;;;3.30;1.20;;;;;;;;;;6127049;23;20495;-84
2022/07/27 11:05:12;;;;;;;5.85;1.08;;;;;;;;;;6153724;23;20064;-85
2022/07/27 11:07:59;;;;;;;3.25;1.10;;;;;;;;;;6152825;23;20393;-84
2022/07/27 11:10:49;;;;;;;3.38;0.88;;;;;;;;;;6129632;23;20033;-85
2022/07/27 11:13:20;;;;;;;3.35;0.85;;;;;;;;;;6126925;23;20025;-84
2022/07/27 11:16:17;;;;;;;4.45;1.00;;;;;;;;;;6151864;23;20030;-85
2022/07/27 11:18:57;;;;;;;3.58;1.05;;;;;;;;;;6151922;23;20037;-85
2022/07/27 11:21:26;;;;;;;4.72;0.90;;;;;;;;;;6150351;23;20534;-85
2022/07/27 11:23:58;;;;;;;8.00;1.30;;;;;;;;;;6124337;23;20030;-85
2022/07/27 11:26:26;;;;;;;3.65;1.08;;;;;;;;;;6125378;23;20489;-85
2022/07/27 11:28:57;;;;;;;3.10;0.93;;;;;;;;;;6126303;23;20436;-85
2022/07/27 11:31:34;;;;;;;3.50;0.90;;;;;;;;;;6126661;23;20084;-85
2022/07/27 11:34:28;;;;;;;6.45;1.02;;;;;;;;;;6128109;23;20057;-85
2022/07/27 11:37:00;;;;;;;2.50;0.95;;;;;;;;;;6125372;23;20022;-85
2022/07/27 11:39:31;;;;;;;3.78;0.80;;;;;;;;;;6125311;23;20566;-85
2022/07/27 11:42:19;;;;;;;4.00;0.90;;;;;;;;;;6130319;23;20834;-85
2022/07/27 11:44:52;;;;;;;4.88;1.05;;;;;;;;;;6126570;23;20029;-85
2022/07/27 11:47:22;;;;;;;3.90;0.90;;;;;;;;;;6149460;23;20022;-85
2022/07/27 11:50:14;;;;;;;2.42;0.82;;;;;;;;;;6129355;23;20025;-85
2022/07/27 11:52:41;;;;;;;3.08;0.90;;;;;;;;;;6125676;23;20645;-85
2022/07/27 11:55:12;;;;;;;2.78;1.13;;;;;;;;;;6126713;23;20030;-85
2022/07/27 11:57:45;;;;;;;4.70;1.00;;;;;;;;;;6121949;23;20022;-84
2022/07/27 12:00:18;;;;;;;5.40;1.05;;;;;;;;;;6150347;23;20022;-84
2022/07/27 12:02:50;;;;;;;2.28;0.70;;;;;;;;;;6127208;23;20424;-85
2022/07/27 12:05:20;;;;;;;2.70;0.68;;;;;;;;;;6124470;23;20026;-85
2022/07/27 12:07:50;;;;;;;5.70;1.50;;;;;;;;;;6150052;23;20021;-85
2022/07/27 12:10:55;;;;;;;2.65;0.82;;;;;;;;;;6123768;23;20457;-84
2022/07/27 12:13:31;;;;;;;3.55;0.80;;;;;;;;;;6124618;23;20029;-83
2022/07/27 12:15:58;;;;;;;5.38;1.08;;;;;;;;;;6151762;23;20081;-85
2022/07/27 12:18:42;;;;;;;3.85;0.75;;;;;;;;;;6150985;23;20022;-85
2022/07/27 12:21:17;;;;;;;2.58;0.70;;;;;;;;;;6125491;23;20018;-85
2022/07/27 12:23:49;;;;;;;2.00;0.60;;;;;;;;;;6155616;23;20085;-85
2022/07/27 12:26:26;;;;;;;2.28;0.70;;;;;;;;;;6129126;23;20034;-85
2022/07/27 12:29:05;;;;;;;1.80;0.80;;;;;;;;;;6127285;23;20018;-85
2022/07/27 12:31:33;;;;;;;2.80;1.08;;;;;;;;;;6122378;23;20024;-85
2022/07/27 12:34:22;;;;;;;2.93;0.90;;;;;;;;;;6127146;23;20074;-84
2022/07/27 12:36:55;;;;;;;3.67;1.00;;;;;;;;;;6149707;23;20534;-85
2022/07/27 12:39:37;;;;;;;9.48;1.40;;;;;;;;;;6125159;23;20025;-85
2022/07/27 12:42:08;;;;;;;6.25;1.02;;;;;;;;;;6127247;23;20081;-85
2022/07/27 12:44:49;;;;;;;3.58;1.08;;;;;;;;;;6127001;23;20021;-85
2022/07/27 12:50:06;;;;;;;2.58;0.95;;;;;;;;;;6149436;23;20018;-85
2022/07/27 12:52:39;;;;;;;1.65;0.80;;;;;;;;;;6147712;23;20026;-84
2022/07/27 12:55:15;;;;;;;6.70;0.88;;;;;;;;;;6124612;23;20163;-86
2022/07/27 12:57:48;;;;;;;2.28;0.70;;;;;;;;;;6128367;23;20018;-85
2022/07/27 13:00:28;;;;;;;4.47;0.93;;;;;;;;;;6124541;23;20029;-85
2022/07/27 13:03:01;;;;;;;9.45;1.35;;;;;;;;;;6124763;23;20033;-83
2022/07/27 13:05:34;;;;;;;3.78;1.00;;;;;;;;;;6123802;23;20033;-84
2022/07/27 13:08:03;;;;;;;1.85;0.80;;;;;;;;;;6150597;23;20771;-85
2022/07/27 13:10:35;;;;;;;4.65;0.90;;;;;;;;;;6121772;23;20515;-85
2022/07/27 13:13:07;;;;;;;2.58;0.80;;;;;;;;;;6124932;23;20851;-86
2022/07/27 13:15:44;;;;;;;3.58;1.08;;;;;;;;;;6128534;23;20106;-85
2022/07/27 13:18:17;;;;;;;9.43;1.10;;;;;;;;;;6124609;23;20036;-84
2022/07/27 13:20:50;;;;;;;3.47;0.90;;;;;;;;;;6124824;23;20025;-85
2022/07/27 13:23:22;;;;;;;1.95;0.80;;;;;;;;;;6123183;23;20535;-85
2022/07/27 13:25:53;;;;;;;2.88;1.00;;;;;;;;;;6147538;23;20794;-85
2022/07/27 13:28:21;;;;;;;2.20;0.75;;;;;;;;;;6123481;23;20030;-85
2022/07/27 13:30:48;;;;;;;2.47;0.73;;;;;;;;;;6149044;23;20018;-85
2022/07/27 13:33:15;;;;;;;1.85;0.82;;;;;;;;;;6123157;23;20026;-84
2022/07/27 13:35:46;;;;;;;3.13;0.70;;;;;;;;;;6151380;23;20874;-84
2022/07/27 13:38:27;;;;;;;2.85;0.80;;;;;;;;;;6128754;23;20037;-85
2022/07/27 13:40:57;;;;;;;3.28;0.90;;;;;;;;;;6123993;23;20450;-84
2022/07/27 13:43:26;;;;;;;3.40;0.95;;;;;;;;;;6124746;23;20468;-85
2022/07/27 13:46:01;;;;;;;2.38;0.60;;;;;;;;;;6126476;23;20558;-84
2022/07/27 13:48:31;;;;;;;0.98;0.57;;;;;;;;;;6125909;23;20113;-85
2022/07/27 13:51:15;;;;;;;1.08;0.70;;;;;;;;;;6151136;23;20755;-85
2022/07/27 13:53:45;;;;;;;2.60;0.85;;;;;;;;;;6152548;23;20036;-85
2022/07/27 13:56:13;;;;;;;2.47;0.93;;;;;;;;;;6122509;23;20018;-85
2022/07/27 13:58:42;;;;;;;4.28;0.60;;;;;;;;;;6123227;23;20433;-85
2022/07/27 14:01:11;;;;;;;2.25;0.73;;;;;;;;;;6125785;23;20748;-84
2022/07/27 14:03:44;;;;;;;2.40;0.90;;;;;;;;;;6148501;23;20014;-86
2022/07/27 14:06:12;;;;;;;2.87;0.90;;;;;;;;;;6150942;23;20091;-86
2022/07/27 14:08:49;;;;;;;;;;;;;;;;;;;;;
2022/07/27 14:11:35;;;;;;;3.92;0.90;;;;;;;;;;6147608;23;20025;-86
2022/07/27 14:14:28;;;;;;;1.05;0.60;;;;;;;;;;6131012;23;20029;-85
2022/07/27 14:17:16;;;;;;;2.88;1.00;;;;;;;;;;6077940;23;20021;-85
2022/07/27 14:19:44;;;;;;;1.45;0.85;;;;;;;;;;6127284;23;20105;-86
2022/07/27 14:22:19;;;;;;;2.47;0.63;;;;;;;;;;6124142;23;20065;-85
2022/07/27 14:24:54;;;;;;;3.55;0.90;;;;;;;;;;6125277;23;20030;-85
2022/07/27 14:27:21;;;;;;;;;;;;;;;;;;6125755;23;20029;-85
2022/07/27 14:30:18;;;;;;;4.07;0.70;;;;;;;;;;6146990;23;20516;-85
2022/07/27 14:32:47;;;;;;;1.90;0.80;;;;;;;;;;6128731;23;20018;-85
2022/07/27 14:35:20;;;;;;;2.55;0.95;;;;;;;;;;6152069;23;20021;-86
2022/07/27 14:37:52;;;;;;;3.03;0.90;;;;;;;;;;6123875;23;20085;-85
2022/07/27 14:40:24;;;;;;;7.05;1.00;;;;;;;;;;6125546;23;20026;-86
2022/07/27 14:43:01;;;;;;;1.83;0.70;;;;;;;;;;6123232;23;20045;-85
2022/07/27 14:45:28;;;;;;;;;;;;;;;;;;6126109;23;20025;-85
2022/07/27 14:48:10;;;;;;;4.88;0.73;;;;;;;;;;6146752;23;44243;-86
2022/07/27 14:50:47;;;;;;;2.45;0.80;;;;;;;;;;6129413;23;20204;-85
2022/07/27 14:53:16;;;;;;;1.38;0.70;;;;;;;;;;6126836;23;20029;-86
2022/07/27 14:56:15;;;;;;;2.55;0.75;;;;;;;;;;6126947;23;20801;-86
2022/07/27 14:59:03;;;;;;;1.98;0.73;;;;;;;;;;6129041;23;20323;-85
2022/07/27 15:01:44;;;;;;;4.07;1.00;;;;;;;;;;6128095;23;20108;-86
2022/07/27 15:04:19;;;;;;;4.95;0.70;;;;;;;;;;6124692;23;20034;-85
2022/07/27 15:06:47;;;;;;;;;;;;;;;;;;6125711;23;20022;-85
2022/07/27 15:09:30;;;;;;;5.05;0.88;;;;;;;;;;6148233;23;42464;-85
2022/07/27 15:12:07;;;;;;;1.27;0.60;;;;;;;;;;6127494;23;20025;-85
2022/07/27 15:14:38;;;;;;;3.08;0.90;;;;;;;;;;6125218;23;20021;-85
2022/07/27 15:17:07;;;;;;;1.55;0.77;;;;;;;;;;6152315;23;20028;-86
2022/07/27 15:19:36;;;;;;;2.53;0.73;;;;;;;;;;6123240;23;20503;-85
2022/07/27 15:22:10;;;;;;;4.55;0.70;;;;;;;;;;6126779;23;20026;-85
2022/07/27 15:24:37;;;;;;;1.50;0.50;;;;;;;;;;6121744;23;20014;-85